createdAt,value
2023-02-27T00:01:55.382Z,7.07
2023-02-27T00:04:22.501Z,6.65
2023-02-27T00:06:49.545Z,4.70
2023-02-27T00:09:16.566Z,6.07
2023-02-27T00:11:43.765Z,4.78
2023-02-27T00:14:10.913Z,7.88
2023-02-27T00:16:37.950Z,6.47
2023-02-27T00:19:05.603Z,6.10
2023-02-27T00:21:34.767Z,4.50
2023-02-27T00:24:03.942Z,4.43
2023-02-27T00:26:31.048Z,4.20
2023-02-27T00:28:58.770Z,4.40
2023-02-27T00:31:26.113Z,3.85
2023-02-27T00:33:53.429Z,4.90
2023-02-27T00:36:20.461Z,5.65
2023-02-27T00:38:47.791Z,5.03
2023-02-27T00:41:15.021Z,3.50
2023-02-27T00:43:42.020Z,4.22
2023-02-27T00:46:10.491Z,3.17
2023-02-27T00:48:37.620Z,5.68
2023-02-27T00:51:05.070Z,4.13
2023-02-27T00:53:32.289Z,5.57
2023-02-27T00:55:59.403Z,4.45
2023-02-27T00:58:26.705Z,4.57
2023-02-27T01:00:53.894Z,5.68
2023-02-27T01:03:21.218Z,6.53
2023-02-27T01:05:48.569Z,4.43
2023-02-27T01:08:15.630Z,4.60
2023-02-27T01:10:42.724Z,4.28
2023-02-27T01:13:11.315Z,4.45
2023-02-27T01:15:38.736Z,7.20
2023-02-27T01:18:05.770Z,3.10
2023-02-27T01:20:32.791Z,7.93
2023-02-27T01:22:59.910Z,5.50
2023-02-27T01:25:26.944Z,8.68
2023-02-27T01:27:53.947Z,5.20
2023-02-27T01:30:21.143Z,5.63
2023-02-27T01:32:48.134Z,7.20
2023-02-27T01:35:15.249Z,5.60
2023-02-27T01:37:42.572Z,8.80
2023-02-27T01:40:10.197Z,4.05
2023-02-27T01:42:37.283Z,4.57
2023-02-27T01:45:13.453Z,5.07
2023-02-27T01:47:49.879Z,5.15
2023-02-27T01:50:18.868Z,2.92
2023-02-27T01:52:50.157Z,3.95
2023-02-27T01:55:17.359Z,8.93
2023-02-27T01:57:47.540Z,4.70
2023-02-27T02:00:15.144Z,3.80
2023-02-27T02:02:49.109Z,2.47
2023-02-27T02:07:45.876Z,5.63
2023-02-27T02:10:17.382Z,6.60
2023-02-27T02:12:45.721Z,4.93
2023-02-27T02:15:13.051Z,5.13
2023-02-27T02:17:54.767Z,2.13
2023-02-27T02:20:39.709Z,3.55
2023-02-27T02:23:48.177Z,2.65
2023-02-27T02:26:33.241Z,4.13
2023-02-27T02:29:15.308Z,3.10
2023-02-27T02:32:20.024Z,4.55
2023-02-27T02:35:00.733Z,3.45
2023-02-27T02:37:46.388Z,3.03
2023-02-27T02:40:26.705Z,2.60
2023-02-27T02:42:56.983Z,3.17
2023-02-27T02:45:26.892Z,6.57
2023-02-27T02:48:17.809Z,3.90
2023-02-27T02:51:00.671Z,7.85
2023-02-27T02:53:54.841Z,9.75
2023-02-27T02:56:48.141Z,5.28
2023-02-27T02:59:39.710Z,8.20
2023-02-27T03:02:14.465Z,8.43
2023-02-27T03:04:53.401Z,5.45
2023-02-27T03:07:35.346Z,4.20
2023-02-27T03:10:27.916Z,3.05
2023-02-27T03:13:18.314Z,3.35
2023-02-27T03:16:04.553Z,2.75
2023-02-27T03:18:38.306Z,3.67
2023-02-27T03:21:11.657Z,6.80
2023-02-27T03:23:45.570Z,7.13
2023-02-27T03:29:01.330Z,5.47
2023-02-27T03:31:37.421Z,4.28
2023-02-27T03:34:21.492Z,4.43
2023-02-27T03:36:58.578Z,2.78
2023-02-27T03:39:45.737Z,6.07
2023-02-27T03:42:34.614Z,4.65
2023-02-27T03:45:31.661Z,6.47
2023-02-27T03:47:59.411Z,4.97
2023-02-27T03:50:26.482Z,4.03
2023-02-27T03:52:54.259Z,4.18
2023-02-27T03:55:27.040Z,5.70
2023-02-27T03:57:54.536Z,7.90
2023-02-27T04:00:24.533Z,4.88
2023-02-27T04:02:53.585Z,6.55
2023-02-27T04:05:21.542Z,6.53
2023-02-27T04:08:15.505Z,5.50
2023-02-27T04:10:54.553Z,6.30
2023-02-27T04:13:50.175Z,6.82
2023-02-27T04:16:35.707Z,5.28
2023-02-27T04:19:15.299Z,4.18
2023-02-27T04:22:03.122Z,3.45
2023-02-27T04:24:56.017Z,4.93
2023-02-27T04:27:37.814Z,5.13
2023-02-27T04:30:25.878Z,4.63
2023-02-27T04:33:07.112Z,7.25
2023-02-27T04:35:48.116Z,5.55
2023-02-27T04:38:23.357Z,3.50
2023-02-27T04:40:58.295Z,5.70
2023-02-27T04:43:28.214Z,5.90
2023-02-27T04:45:57.596Z,8.13
2023-02-27T04:48:34.658Z,5.72
2023-02-27T04:51:12.791Z,4.10
2023-02-27T04:54:14.621Z,5.25
2023-02-27T04:56:47.960Z,5.35
2023-02-27T04:59:20.703Z,2.80
2023-02-27T05:02:12.934Z,5.97
2023-02-27T05:04:42.952Z,3.17
2023-02-27T05:07:16.420Z,5.07
2023-02-27T05:10:02.201Z,3.35
2023-02-27T05:12:36.628Z,6.43
2023-02-27T05:15:10.590Z,5.60
2023-02-27T05:20:15.187Z,6.32
2023-02-27T05:22:55.263Z,3.95
2023-02-27T05:25:57.766Z,7.00
2023-02-27T05:28:58.457Z,5.00
2023-02-27T05:31:44.131Z,5.53
2023-02-27T05:34:20.288Z,3.75
2023-02-27T05:36:58.143Z,3.38
2023-02-27T05:39:32.677Z,3.30
2023-02-27T05:42:05.433Z,4.80
2023-02-27T05:44:40.787Z,4.10
2023-02-27T05:47:16.428Z,3.97
2023-02-27T05:49:58.273Z,7.05
2023-02-27T05:52:26.934Z,4.47
2023-02-27T05:55:19.184Z,5.45
2023-02-27T05:58:12.225Z,4.78
2023-02-27T06:00:44.840Z,4.13
2023-02-27T06:03:12.588Z,3.30
2023-02-27T06:05:41.716Z,5.60
2023-02-27T06:08:09.541Z,6.13
2023-02-27T06:10:37.376Z,5.13
2023-02-27T06:13:04.556Z,3.28
2023-02-27T06:15:31.866Z,9.75
2023-02-27T06:17:58.891Z,3.42
2023-02-27T06:20:25.922Z,5.05
2023-02-27T06:22:53.003Z,2.75
2023-02-27T06:25:20.217Z,5.32
2023-02-27T06:27:47.302Z,3.05
2023-02-27T06:30:14.936Z,5.82
2023-02-27T06:32:42.035Z,3.63
2023-02-27T06:35:09.877Z,4.63
2023-02-27T06:37:37.518Z,6.10
2023-02-27T06:40:06.150Z,4.50
2023-02-27T06:42:33.231Z,4.20
2023-02-27T06:45:00.796Z,4.18
2023-02-27T06:47:27.780Z,5.15
2023-02-27T06:49:54.810Z,4.90
2023-02-27T06:52:21.994Z,3.72
2023-02-27T06:54:49.023Z,4.25
2023-02-27T06:57:16.133Z,4.65
2023-02-27T06:59:43.406Z,4.65
2023-02-27T07:02:13.023Z,3.83
2023-02-27T07:04:40.276Z,5.97
2023-02-27T07:07:34.630Z,7.55
2023-02-27T07:09:54.778Z,5.85
2023-02-27T07:12:22.273Z,3.25
2023-02-27T07:14:49.330Z,5.03
2023-02-27T07:17:16.349Z,3.47
2023-02-27T07:19:43.442Z,4.38
2023-02-27T07:22:10.483Z,5.00
2023-02-27T07:24:37.646Z,4.30
2023-02-27T07:27:04.684Z,5.13
2023-02-27T07:29:31.748Z,2.88
2023-02-27T07:31:58.860Z,3.40
2023-02-27T07:34:25.954Z,2.92
2023-02-27T07:36:53.382Z,4.97
2023-02-27T07:39:20.631Z,5.18
2023-02-27T07:41:47.697Z,7.05
2023-02-27T07:44:14.839Z,4.47
2023-02-27T07:46:42.008Z,5.22
2023-02-27T07:49:10.157Z,5.97
2023-02-27T07:51:37.193Z,3.78
2023-02-27T07:54:04.396Z,4.82
2023-02-27T07:56:31.448Z,8.13
2023-02-27T07:58:58.567Z,7.68
2023-02-27T08:01:25.711Z,8.27
2023-02-27T08:03:53.389Z,4.97
2023-02-27T08:06:20.455Z,3.80
2023-02-27T08:08:47.559Z,5.65
2023-02-27T08:11:15.780Z,10.27
2023-02-27T08:13:59.554Z,56.22
2023-02-27T08:16:28.626Z,50.47
2023-02-27T08:18:56.290Z,19.95
2023-02-27T08:21:23.543Z,22.08
2023-02-27T08:23:50.572Z,56.92
2023-02-27T08:26:17.769Z,81.10
2023-02-27T08:28:45.025Z,71.43
2023-02-27T08:31:12.111Z,44.65
2023-02-27T08:33:39.397Z,35.50
2023-02-27T08:36:08.231Z,30.02
2023-02-27T08:38:35.354Z,13.57
2023-02-27T08:41:03.626Z,12.65
2023-02-27T08:43:30.680Z,20.45
2023-02-27T08:45:57.846Z,15.68
2023-02-27T08:48:25.258Z,21.40
2023-02-27T08:50:53.226Z,8.27
2023-02-27T08:53:20.317Z,11.80
2023-02-27T08:55:54.137Z,8.77
2023-02-27T08:58:21.311Z,6.45
2023-02-27T09:00:48.557Z,5.32
2023-02-27T09:03:16.056Z,11.13
2023-02-27T09:05:43.673Z,3.17
2023-02-27T09:08:10.792Z,4.85
2023-02-27T09:10:37.946Z,8.48
2023-02-27T09:13:05.220Z,9.38
2023-02-27T09:15:34.717Z,5.85
2023-02-27T09:18:03.473Z,10.32
2023-02-27T09:20:32.663Z,6.32
2023-02-27T09:23:00.324Z,12.02
2023-02-27T09:25:28.124Z,10.40
2023-02-27T09:27:56.000Z,10.38
2023-02-27T09:30:23.974Z,6.43
2023-02-27T09:32:51.535Z,5.93
2023-02-27T09:35:20.715Z,7.00
2023-02-27T09:37:49.520Z,4.95
2023-02-27T09:40:22.654Z,6.10
2023-02-27T09:42:51.905Z,10.10
2023-02-27T09:45:31.513Z,5.35
2023-02-27T09:48:06.835Z,9.30
2023-02-27T09:50:44.573Z,6.15
2023-02-27T09:53:39.354Z,4.63
2023-02-27T09:56:26.955Z,6.57
2023-02-27T09:58:58.851Z,4.97
2023-02-27T10:01:31.349Z,5.18
2023-02-27T10:04:10.064Z,7.22
2023-02-27T10:06:45.090Z,5.75
2023-02-27T10:09:36.641Z,6.63
2023-02-27T10:12:28.350Z,7.75
2023-02-27T10:15:10.326Z,6.72
2023-02-27T10:17:45.343Z,9.68
2023-02-27T10:20:34.545Z,3.47
2023-02-27T10:23:07.138Z,4.78
2023-02-27T10:25:40.607Z,5.95
2023-02-27T10:28:16.697Z,7.78
2023-02-27T10:30:50.213Z,4.50
2023-02-27T10:33:23.296Z,4.45
2023-02-27T10:35:53.886Z,4.00
2023-02-27T10:38:44.966Z,11.30
2023-02-27T10:41:15.068Z,15.05
2023-02-27T10:43:43.139Z,17.52
2023-02-27T10:46:23.684Z,15.10
2023-02-27T10:48:51.281Z,15.73
2023-02-27T10:51:23.951Z,13.50
2023-02-27T10:53:53.954Z,7.22
2023-02-27T10:56:27.116Z,6.97
2023-02-27T10:59:07.340Z,5.95
2023-02-27T11:01:50.472Z,9.30
2023-02-27T11:04:31.642Z,14.00
2023-02-27T11:07:00.709Z,19.27
2023-02-27T11:09:33.679Z,19.17
2023-02-27T11:12:19.933Z,20.83
2023-02-27T11:14:53.051Z,17.90
2023-02-27T11:17:34.368Z,17.58
2023-02-27T11:20:06.765Z,21.67
2023-02-27T11:22:34.122Z,14.90
2023-02-27T11:25:25.016Z,11.02
2023-02-27T11:27:52.592Z,13.85
2023-02-27T11:30:29.142Z,9.57
2023-02-27T11:32:59.299Z,18.63
2023-02-27T11:35:30.637Z,9.05
2023-02-27T11:38:02.979Z,8.82
2023-02-27T11:40:51.644Z,8.98
2023-02-27T11:43:34.950Z,13.05
2023-02-27T11:46:44.276Z,19.27
2023-02-27T11:49:03.411Z,17.17
2023-02-27T11:51:42.725Z,15.95
2023-02-27T11:54:21.150Z,16.10
2023-02-27T11:56:54.448Z,17.25
2023-02-27T11:59:40.056Z,14.18
2023-02-27T12:02:39.522Z,17.55
2023-02-27T12:05:24.614Z,16.08
2023-02-27T12:08:02.715Z,19.17
2023-02-27T12:10:35.586Z,12.60
2023-02-27T12:13:36.670Z,13.50
2023-02-27T12:16:29.862Z,25.50
2023-02-27T12:19:06.129Z,15.55
2023-02-27T12:21:49.830Z,14.50
2023-02-27T12:24:25.990Z,20.20
2023-02-27T12:27:13.683Z,26.83
2023-02-27T12:29:48.688Z,26.27
2023-02-27T12:32:23.857Z,30.50
2023-02-27T12:35:28.789Z,31.00
2023-02-27T12:37:57.597Z,33.25
2023-02-27T12:41:09.390Z,29.08
2023-02-27T12:44:00.265Z,23.77
2023-02-27T12:46:38.803Z,16.02
2023-02-27T12:49:26.739Z,15.20
2023-02-27T12:52:23.034Z,18.17
2023-02-27T12:55:16.970Z,17.17
2023-02-27T12:58:08.702Z,17.80
2023-02-27T13:00:53.920Z,18.13
2023-02-27T13:03:26.054Z,12.85
2023-02-27T13:06:21.683Z,11.88
2023-02-27T13:09:11.938Z,14.30
2023-02-27T13:12:03.314Z,7.07
2023-02-27T13:14:42.226Z,8.85
2023-02-27T13:17:19.778Z,9.73
2023-02-27T13:20:02.861Z,10.60
2023-02-27T13:22:53.169Z,10.43
2023-02-27T13:25:20.849Z,10.88
2023-02-27T13:27:56.603Z,15.18
2023-02-27T13:30:28.911Z,14.95
2023-02-27T13:33:05.573Z,16.35
2023-02-27T13:35:45.784Z,13.93
2023-02-27T13:38:51.045Z,13.88
2023-02-27T13:41:21.113Z,12.20
2023-02-27T13:44:00.488Z,17.35
2023-02-27T13:46:29.448Z,12.93
2023-02-27T13:49:05.646Z,20.95
2023-02-27T13:51:35.586Z,13.80
2023-02-27T13:54:15.050Z,15.27
2023-02-27T13:56:48.321Z,11.25
2023-02-27T13:59:35.185Z,12.18
2023-02-27T14:02:11.236Z,11.10
2023-02-27T14:04:50.548Z,15.95
2023-02-27T14:07:23.922Z,15.55
2023-02-27T14:10:00.055Z,11.68
2023-02-27T14:12:46.499Z,13.20
2023-02-27T14:15:23.062Z,17.20
2023-02-27T14:17:59.641Z,13.40
2023-02-27T14:20:32.894Z,10.07
2023-02-27T14:23:18.086Z,9.57
2023-02-27T14:25:53.598Z,10.48
2023-02-27T14:28:30.801Z,13.43
2023-02-27T14:31:03.543Z,15.35
2023-02-27T14:33:45.704Z,16.08
2023-02-27T14:36:20.853Z,17.75
2023-02-27T14:38:48.926Z,10.85
2023-02-27T14:41:53.121Z,23.70
2023-02-27T14:44:28.928Z,19.98
2023-02-27T14:46:57.769Z,11.88
2023-02-27T14:49:36.163Z,11.27
2023-02-27T14:52:24.282Z,13.15
2023-02-27T14:54:53.816Z,13.63
2023-02-27T14:57:27.150Z,15.63
2023-02-27T14:59:54.763Z,13.30
2023-02-27T15:02:31.018Z,11.05
2023-02-27T15:05:03.886Z,10.00
2023-02-27T15:07:33.931Z,10.80
2023-02-27T15:10:04.733Z,5.38
2023-02-27T15:12:37.581Z,7.72
2023-02-27T15:15:06.396Z,10.02
2023-02-27T15:17:45.653Z,8.35
2023-02-27T15:20:33.148Z,4.38
2023-02-27T15:23:02.040Z,7.72
2023-02-27T15:25:38.759Z,9.00
2023-02-27T15:28:23.449Z,11.48
2023-02-27T15:30:52.696Z,11.77
2023-02-27T15:33:28.457Z,11.00
2023-02-27T15:35:56.322Z,17.25
2023-02-27T15:38:26.076Z,10.68
2023-02-27T15:40:53.480Z,13.13
2023-02-27T15:43:22.577Z,8.60
2023-02-27T15:45:50.899Z,12.80
2023-02-27T15:48:20.064Z,9.88
2023-02-27T15:50:57.837Z,9.68
2023-02-27T15:53:31.327Z,11.60
2023-02-27T15:56:02.256Z,10.40
2023-02-27T15:58:32.329Z,11.77
2023-02-27T16:01:04.151Z,13.32
2023-02-27T16:03:37.504Z,8.55
2023-02-27T16:06:12.551Z,13.82
2023-02-27T16:08:46.414Z,10.68
2023-02-27T16:11:21.669Z,10.68
2023-02-27T16:13:49.189Z,7.25
2023-02-27T16:16:22.065Z,7.72
2023-02-27T16:18:53.696Z,9.02
2023-02-27T16:21:22.280Z,13.25
2023-02-27T16:23:50.496Z,9.75
2023-02-27T16:26:31.607Z,11.05
2023-02-27T16:29:04.405Z,7.28
2023-02-27T16:31:37.641Z,11.27
2023-02-27T16:34:13.843Z,8.73
2023-02-27T16:36:43.510Z,8.98
2023-02-27T16:39:13.803Z,10.68
2023-02-27T16:41:41.041Z,9.93
2023-02-27T16:44:08.163Z,8.27
2023-02-27T16:46:35.393Z,7.85
2023-02-27T16:49:14.141Z,9.88
2023-02-27T16:51:46.446Z,11.45
2023-02-27T16:54:14.298Z,7.22
2023-02-27T16:56:41.803Z,10.07
2023-02-27T16:59:28.652Z,11.65
2023-02-27T17:01:57.107Z,8.43
2023-02-27T17:04:26.268Z,13.07
2023-02-27T17:06:54.668Z,9.57
2023-02-27T17:09:21.877Z,5.88
2023-02-27T17:11:49.397Z,8.18
2023-02-27T17:14:16.621Z,11.38
2023-02-27T17:16:43.762Z,7.57
2023-02-27T17:19:10.959Z,14.07
2023-02-27T17:21:37.985Z,11.60
2023-02-27T17:24:06.457Z,16.92
2023-02-27T17:26:35.068Z,10.07
2023-02-27T17:29:03.395Z,9.10
2023-02-27T17:31:30.525Z,11.48
2023-02-27T17:33:57.748Z,12.93
2023-02-27T17:36:24.928Z,17.05
2023-02-27T17:38:57.327Z,10.13
2023-02-27T17:41:25.109Z,7.60
2023-02-27T17:43:56.399Z,8.60
2023-02-27T17:46:26.185Z,8.57
2023-02-27T17:48:54.982Z,8.63
2023-02-27T17:51:22.604Z,6.45
2023-02-27T17:53:49.754Z,9.95
2023-02-27T17:56:16.977Z,9.32
2023-02-27T17:58:45.717Z,9.20
2023-02-27T18:01:17.257Z,7.30
2023-02-27T18:03:44.545Z,6.60
2023-02-27T18:06:11.954Z,7.43
2023-02-27T18:08:39.431Z,7.97
2023-02-27T18:11:17.178Z,8.38
2023-02-27T18:13:44.983Z,9.45
2023-02-27T18:16:12.301Z,10.27
2023-02-27T18:18:40.906Z,8.68
2023-02-27T18:21:12.133Z,4.78
2023-02-27T18:23:41.045Z,6.55
2023-02-27T18:26:12.521Z,6.90
2023-02-27T18:28:44.697Z,4.93
2023-02-27T18:31:22.914Z,6.13
2023-02-27T18:33:50.138Z,7.88
2023-02-27T18:36:18.073Z,4.18
2023-02-27T18:38:45.748Z,5.13
2023-02-27T18:41:13.327Z,4.53
2023-02-27T18:43:42.187Z,6.65
2023-02-27T18:46:10.575Z,5.50
2023-02-27T18:48:37.722Z,4.97
2023-02-27T18:51:08.673Z,7.25
2023-02-27T18:53:36.070Z,5.32
2023-02-27T18:56:06.065Z,7.75
2023-02-27T18:58:33.863Z,10.18
2023-02-27T19:01:01.173Z,9.98
2023-02-27T19:03:28.753Z,7.80
2023-02-27T19:05:56.025Z,10.55
2023-02-27T19:08:25.366Z,9.07
2023-02-27T19:10:52.775Z,9.60
2023-02-27T19:13:19.818Z,14.05
2023-02-27T19:15:47.273Z,13.43
2023-02-27T19:18:14.390Z,11.00
2023-02-27T19:20:41.360Z,19.65
2023-02-27T19:23:08.456Z,15.55
2023-02-27T19:25:36.120Z,10.55
2023-02-27T19:28:05.403Z,10.68
2023-02-27T19:30:32.448Z,8.68
2023-02-27T19:32:59.720Z,12.85
2023-02-27T19:35:28.023Z,11.27
2023-02-27T19:37:57.114Z,14.77
2023-02-27T19:40:25.519Z,15.75
2023-02-27T19:42:52.717Z,16.45
2023-02-27T19:45:19.839Z,21.88
2023-02-27T19:47:47.055Z,16.05
2023-02-27T19:50:14.290Z,30.73
2023-02-27T19:52:41.460Z,16.00
2023-02-27T19:55:09.173Z,15.45
2023-02-27T19:57:37.171Z,15.15
2023-02-27T20:00:10.424Z,14.82
2023-02-27T20:02:40.346Z,16.80
2023-02-27T20:05:08.090Z,14.70
2023-02-27T20:07:35.600Z,27.58
2023-02-27T20:10:02.655Z,13.23
2023-02-27T20:12:29.668Z,16.92
2023-02-27T20:14:56.825Z,13.93
2023-02-27T20:17:23.906Z,15.32
2023-02-27T20:19:50.969Z,15.70
2023-02-27T20:22:17.979Z,16.23
2023-02-27T20:24:45.111Z,10.60
2023-02-27T20:27:12.576Z,12.35
2023-02-27T20:29:40.717Z,17.88
2023-02-27T20:32:09.134Z,18.42
2023-02-27T20:34:36.396Z,15.35
2023-02-27T20:37:03.597Z,12.65
2023-02-27T20:39:30.734Z,12.77
2023-02-27T20:41:57.717Z,15.07
2023-02-27T20:44:24.804Z,15.02
2023-02-27T20:46:51.980Z,18.25
2023-02-27T20:49:19.045Z,20.35
2023-02-27T20:51:46.529Z,19.58
2023-02-27T20:54:20.437Z,16.75
2023-02-27T20:56:52.418Z,20.95
2023-02-27T20:59:20.911Z,18.88
2023-02-27T21:01:52.226Z,18.60
2023-02-27T21:04:25.927Z,18.30
2023-02-27T21:06:53.391Z,21.05
2023-02-27T21:09:20.589Z,17.83
2023-02-27T21:11:47.598Z,15.93
2023-02-27T21:14:14.782Z,17.45
2023-02-27T21:16:42.042Z,17.20
2023-02-27T21:19:09.207Z,24.20
2023-02-27T21:21:36.806Z,19.45
2023-02-27T21:24:04.753Z,12.25
2023-02-27T21:26:35.416Z,16.33
2023-02-27T21:29:08.694Z,14.75
2023-02-27T21:31:36.968Z,16.85
2023-02-27T21:34:07.197Z,17.55
2023-02-27T21:36:37.123Z,16.13
2023-02-27T21:39:08.089Z,10.02
2023-02-27T21:41:35.685Z,10.90
2023-02-27T21:44:06.193Z,10.13
2023-02-27T21:46:33.933Z,8.80
2023-02-27T21:49:01.882Z,8.68
2023-02-27T21:51:39.934Z,6.57
2023-02-27T21:54:10.710Z,8.30
2023-02-27T21:56:38.426Z,12.65
2023-02-27T21:59:05.633Z,11.90
2023-02-27T22:01:33.795Z,11.48
2023-02-27T22:04:02.257Z,10.57
2023-02-27T22:06:33.983Z,9.43
2023-02-27T22:09:05.163Z,11.98
2023-02-27T22:11:35.006Z,10.10
2023-02-27T22:14:03.416Z,9.73
2023-02-27T22:16:30.676Z,5.97
2023-02-27T22:18:57.788Z,11.52
2023-02-27T22:21:27.321Z,5.68
2023-02-27T22:23:59.349Z,5.22
2023-02-27T22:26:28.524Z,5.80
2023-02-27T22:28:59.574Z,10.88
2023-02-27T22:31:30.132Z,4.03
2023-02-27T22:34:02.134Z,5.45
2023-02-27T22:36:31.533Z,6.57
2023-02-27T22:38:59.451Z,3.72
2023-02-27T22:41:30.136Z,3.80
2023-02-27T22:43:58.865Z,4.60
2023-02-27T22:46:31.681Z,5.47
2023-02-27T22:49:01.675Z,6.20
2023-02-27T22:51:29.184Z,7.22
2023-02-27T22:53:58.379Z,5.05
2023-02-27T22:56:26.314Z,2.70
2023-02-27T22:58:54.132Z,6.22
2023-02-27T23:01:23.829Z,2.03
2023-02-27T23:03:53.056Z,2.47
2023-02-27T23:06:23.081Z,2.65
2023-02-27T23:08:50.299Z,2.92
2023-02-27T23:11:18.932Z,2.70
2023-02-27T23:13:46.281Z,2.78
2023-02-27T23:16:14.119Z,3.80
2023-02-27T23:18:50.905Z,3.03
2023-02-27T23:21:20.591Z,3.67
2023-02-27T23:23:48.046Z,1.83
2023-02-27T23:26:15.501Z,1.48
2023-02-27T23:28:43.012Z,1.35
2023-02-27T23:31:10.291Z,3.17
2023-02-27T23:33:37.449Z,3.63
2023-02-27T23:36:04.988Z,2.15
2023-02-27T23:38:32.369Z,2.88
2023-02-27T23:41:06.572Z,2.42
2023-02-27T23:43:34.099Z,4.20
2023-02-27T23:46:13.238Z,2.55
2023-02-27T23:48:41.469Z,2.55
2023-02-27T23:51:11.021Z,2.92
2023-02-27T23:53:40.423Z,3.35
2023-02-27T23:56:22.264Z,3.72
2023-02-27T23:58:58.650Z,5.15
